sensor_id;sensor_type;location;lat;lon;timestamp;P1;durP1;ratioP1;P2;durP2;ratioP2
43319;SDS011;28914;48.722;9.332;2024-02-16T00:04:04;4.60;;;3.63;;
43319;SDS011;28914;48.722;9.332;2024-02-16T00:09:23;4.93;;;4.43;;
43319;SDS011;28914;48.722;9.332;2024-02-16T00:14:42;4.93;;;4.33;;
43319;SDS011;28914;48.722;9.332;2024-02-16T00:20:01;5.90;;;4.80;;
43319;SDS011;28914;48.722;9.332;2024-02-16T00:25:21;4.40;;;4.00;;
43319;SDS011;28914;48.722;9.332;2024-02-16T00:30:40;7.40;;;5.40;;
43319;SDS011;28914;48.722;9.332;2024-02-16T00:35:59;6.10;;;3.80;;
43319;SDS011;28914;48.722;9.332;2024-02-16T00:41:19;3.37;;;3.07;;
43319;SDS011;28914;48.722;9.332;2024-02-16T00:46:40;4.27;;;3.87;;
43319;SDS011;28914;48.722;9.332;2024-02-16T00:51:59;4.40;;;3.80;;
43319;SDS011;28914;48.722;9.332;2024-02-16T00:57:20;4.63;;;3.47;;
43319;SDS011;28914;48.722;9.332;2024-02-16T01:02:39;4.47;;;3.80;;
43319;SDS011;28914;48.722;9.332;2024-02-16T01:07:59;5.10;;;4.60;;
43319;SDS011;28914;48.722;9.332;2024-02-16T01:13:18;7.23;;;3.87;;
43319;SDS011;28914;48.722;9.332;2024-02-16T01:18:37;6.47;;;4.10;;
43319;SDS011;28914;48.722;9.332;2024-02-16T01:23:58;4.70;;;3.80;;
43319;SDS011;28914;48.722;9.332;2024-02-16T01:29:19;3.83;;;3.50;;
43319;SDS011;28914;48.722;9.332;2024-02-16T01:34:38;5.00;;;4.07;;
43319;SDS011;28914;48.722;9.332;2024-02-16T01:39:58;5.00;;;4.50;;
43319;SDS011;28914;48.722;9.332;2024-02-16T01:45:17;5.87;;;3.40;;
43319;SDS011;28914;48.722;9.332;2024-02-16T01:50:36;4.60;;;4.10;;
43319;SDS011;28914;48.722;9.332;2024-02-16T01:55:55;5.27;;;4.77;;
43319;SDS011;28914;48.722;9.332;2024-02-16T02:01:15;5.00;;;4.37;;
43319;SDS011;28914;48.722;9.332;2024-02-16T02:06:34;5.00;;;4.00;;
43319;SDS011;28914;48.722;9.332;2024-02-16T02:11:53;6.10;;;4.40;;
43319;SDS011;28914;48.722;9.332;2024-02-16T02:17:13;4.23;;;3.83;;
43319;SDS011;28914;48.722;9.332;2024-02-16T02:22:32;5.33;;;4.37;;
43319;SDS011;28914;48.722;9.332;2024-02-16T02:27:51;5.30;;;4.80;;
43319;SDS011;28914;48.722;9.332;2024-02-16T02:33:11;6.17;;;3.77;;
43319;SDS011;28914;48.722;9.332;2024-02-16T02:38:31;6.30;;;4.53;;
43319;SDS011;28914;48.722;9.332;2024-02-16T02:43:52;5.30;;;4.60;;
43319;SDS011;28914;48.722;9.332;2024-02-16T02:49:11;4.47;;;3.90;;
43319;SDS011;28914;48.722;9.332;2024-02-16T02:54:30;5.07;;;4.10;;
43319;SDS011;28914;48.722;9.332;2024-02-16T02:59:50;6.40;;;4.33;;
43319;SDS011;28914;48.722;9.332;2024-02-16T03:05:09;4.60;;;4.20;;
43319;SDS011;28914;48.722;9.332;2024-02-16T03:10:28;5.23;;;4.13;;
43319;SDS011;28914;48.722;9.332;2024-02-16T03:15:53;4.00;;;3.57;;
43319;SDS011;28914;48.722;9.332;2024-02-16T03:21:14;6.03;;;4.93;;
43319;SDS011;28914;48.722;9.332;2024-02-16T03:26:35;5.13;;;4.63;;
43319;SDS011;28914;48.722;9.332;2024-02-16T03:31:54;5.20;;;4.70;;
43319;SDS011;28914;48.722;9.332;2024-02-16T03:37:13;9.73;;;8.73;;
43319;SDS011;28914;48.722;9.332;2024-02-16T03:42:33;6.33;;;5.73;;
43319;SDS011;28914;48.722;9.332;2024-02-16T03:47:52;6.10;;;5.50;;
43319;SDS011;28914;48.722;9.332;2024-02-16T03:53:11;5.83;;;5.17;;
43319;SDS011;28914;48.722;9.332;2024-02-16T03:58:31;5.17;;;4.67;;
43319;SDS011;28914;48.722;9.332;2024-02-16T04:03:50;5.43;;;4.93;;
43319;SDS011;28914;48.722;9.332;2024-02-16T04:09:11;4.90;;;4.40;;
43319;SDS011;28914;48.722;9.332;2024-02-16T04:14:30;7.83;;;4.77;;
43319;SDS011;28914;48.722;9.332;2024-02-16T04:19:51;5.43;;;4.60;;
43319;SDS011;28914;48.722;9.332;2024-02-16T04:25:10;4.93;;;4.40;;
43319;SDS011;28914;48.722;9.332;2024-02-16T04:30:29;6.60;;;5.10;;
43319;SDS011;28914;48.722;9.332;2024-02-16T04:35:48;4.77;;;4.30;;
43319;SDS011;28914;48.722;9.332;2024-02-16T04:41:09;5.57;;;4.50;;
43319;SDS011;28914;48.722;9.332;2024-02-16T04:46:28;5.50;;;4.50;;
43319;SDS011;28914;48.722;9.332;2024-02-16T04:51:47;5.90;;;5.03;;
43319;SDS011;28914;48.722;9.332;2024-02-16T04:57:06;4.60;;;4.20;;
43319;SDS011;28914;48.722;9.332;2024-02-16T05:02:26;6.03;;;4.37;;
43319;SDS011;28914;48.722;9.332;2024-02-16T05:07:49;5.20;;;4.43;;
43319;SDS011;28914;48.722;9.332;2024-02-16T05:13:08;5.50;;;5.00;;
43319;SDS011;28914;48.722;9.332;2024-02-16T05:18:28;5.33;;;4.53;;
43319;SDS011;28914;48.722;9.332;2024-02-16T05:23:47;6.20;;;4.90;;
43319;SDS011;28914;48.722;9.332;2024-02-16T05:29:06;5.70;;;5.10;;
43319;SDS011;28914;48.722;9.332;2024-02-16T05:34:26;6.07;;;4.50;;
43319;SDS011;28914;48.722;9.332;2024-02-16T05:39:45;4.60;;;4.20;;
43319;SDS011;28914;48.722;9.332;2024-02-16T05:45:15;6.70;;;3.90;;
43319;SDS011;28914;48.722;9.332;2024-02-16T05:50:34;4.33;;;3.93;;
43319;SDS011;28914;48.722;9.332;2024-02-16T05:55:54;4.07;;;3.30;;
43319;SDS011;28914;48.722;9.332;2024-02-16T06:01:13;4.90;;;3.80;;
43319;SDS011;28914;48.722;9.332;2024-02-16T06:06:35;4.87;;;4.40;;
43319;SDS011;28914;48.722;9.332;2024-02-16T06:11:54;5.50;;;4.43;;
43319;SDS011;28914;48.722;9.332;2024-02-16T06:17:14;4.77;;;4.00;;
43319;SDS011;28914;48.722;9.332;2024-02-16T06:22:33;4.87;;;4.23;;
43319;SDS011;28914;48.722;9.332;2024-02-16T06:27:53;5.10;;;4.03;;
43319;SDS011;28914;48.722;9.332;2024-02-16T06:33:12;4.60;;;3.97;;
43319;SDS011;28914;48.722;9.332;2024-02-16T06:38:31;5.00;;;4.50;;
43319;SDS011;28914;48.722;9.332;2024-02-16T06:43:50;5.60;;;5.10;;
43319;SDS011;28914;48.722;9.332;2024-02-16T06:49:09;8.05;;;4.72;;
43319;SDS011;28914;48.722;9.332;2024-02-16T06:54:29;4.20;;;3.80;;
43319;SDS011;28914;48.722;9.332;2024-02-16T06:59:48;5.20;;;4.30;;
43319;SDS011;28914;48.722;9.332;2024-02-16T07:05:07;5.83;;;5.33;;
43319;SDS011;28914;48.722;9.332;2024-02-16T07:10:26;8.00;;;7.20;;
43319;SDS011;28914;48.722;9.332;2024-02-16T07:15:47;7.97;;;5.10;;
43319;SDS011;28914;48.722;9.332;2024-02-16T07:21:06;10.63;;;5.10;;
43319;SDS011;28914;48.722;9.332;2024-02-16T07:26:25;10.10;;;6.40;;
43319;SDS011;28914;48.722;9.332;2024-02-16T07:31:44;6.17;;;4.90;;
43319;SDS011;28914;48.722;9.332;2024-02-16T07:37:04;6.70;;;4.87;;
43319;SDS011;28914;48.722;9.332;2024-02-16T07:42:23;10.40;;;6.10;;
43319;SDS011;28914;48.722;9.332;2024-02-16T07:47:42;8.03;;;5.30;;
43319;SDS011;28914;48.722;9.332;2024-02-16T07:53:01;6.27;;;5.13;;
43319;SDS011;28914;48.722;9.332;2024-02-16T07:58:22;7.50;;;6.00;;
43319;SDS011;28914;48.722;9.332;2024-02-16T08:03:41;8.20;;;5.90;;
43319;SDS011;28914;48.722;9.332;2024-02-16T08:09:01;5.53;;;4.97;;
43319;SDS011;28914;48.722;9.332;2024-02-16T08:14:20;5.77;;;4.77;;
43319;SDS011;28914;48.722;9.332;2024-02-16T08:19:39;6.17;;;4.57;;
43319;SDS011;28914;48.722;9.332;2024-02-16T08:24:59;4.80;;;4.07;;
43319;SDS011;28914;48.722;9.332;2024-02-16T08:30:18;5.10;;;4.60;;
43319;SDS011;28914;48.722;9.332;2024-02-16T08:35:37;4.63;;;4.23;;
43319;SDS011;28914;48.722;9.332;2024-02-16T08:40:56;5.97;;;4.87;;
43319;SDS011;28914;48.722;9.332;2024-02-16T08:46:16;5.70;;;5.30;;
43319;SDS011;28914;48.722;9.332;2024-02-16T08:51:35;4.63;;;4.23;;
43319;SDS011;28914;48.722;9.332;2024-02-16T08:56:54;5.53;;;4.80;;
43319;SDS011;28914;48.722;9.332;2024-02-16T09:02:14;5.47;;;4.97;;
43319;SDS011;28914;48.722;9.332;2024-02-16T09:07:33;6.40;;;5.43;;
43319;SDS011;28914;48.722;9.332;2024-02-16T09:12:52;4.80;;;4.30;;
43319;SDS011;28914;48.722;9.332;2024-02-16T09:18:11;4.70;;;4.20;;
43319;SDS011;28914;48.722;9.332;2024-02-16T09:23:34;5.60;;;4.90;;
43319;SDS011;28914;48.722;9.332;2024-02-16T09:28:54;4.87;;;4.33;;
43319;SDS011;28914;48.722;9.332;2024-02-16T09:34:13;5.50;;;4.70;;
43319;SDS011;28914;48.722;9.332;2024-02-16T09:39:32;5.30;;;4.40;;
43319;SDS011;28914;48.722;9.332;2024-02-16T09:44:54;5.07;;;3.83;;
43319;SDS011;28914;48.722;9.332;2024-02-16T09:50:13;6.23;;;4.50;;
43319;SDS011;28914;48.722;9.332;2024-02-16T09:55:33;4.37;;;3.40;;
43319;SDS011;28914;48.722;9.332;2024-02-16T10:00:55;3.20;;;2.40;;
43319;SDS011;28914;48.722;9.332;2024-02-16T10:06:15;3.40;;;3.10;;
43319;SDS011;28914;48.722;9.332;2024-02-16T10:11:35;3.33;;;3.00;;
43319;SDS011;28914;48.722;9.332;2024-02-16T10:17:03;5.33;;;3.50;;
43319;SDS011;28914;48.722;9.332;2024-02-16T10:22:25;3.10;;;2.80;;
43319;SDS011;28914;48.722;9.332;2024-02-16T10:27:46;3.20;;;2.87;;
43319;SDS011;28914;48.722;9.332;2024-02-16T10:33:06;3.17;;;2.87;;
43319;SDS011;28914;48.722;9.332;2024-02-16T10:38:25;5.80;;;2.90;;
43319;SDS011;28914;48.722;9.332;2024-02-16T10:43:46;3.57;;;2.47;;
43319;SDS011;28914;48.722;9.332;2024-02-16T10:49:07;3.00;;;2.70;;
43319;SDS011;28914;48.722;9.332;2024-02-16T10:54:29;5.03;;;3.00;;
43319;SDS011;28914;48.722;9.332;2024-02-16T10:59:52;3.80;;;3.10;;
43319;SDS011;28914;48.722;9.332;2024-02-16T11:05:13;6.50;;;2.43;;
43319;SDS011;28914;48.722;9.332;2024-02-16T11:10:32;3.40;;;2.73;;
43319;SDS011;28914;48.722;9.332;2024-02-16T11:15:59;6.27;;;2.70;;
43319;SDS011;28914;48.722;9.332;2024-02-16T11:21:19;3.03;;;1.93;;
43319;SDS011;28914;48.722;9.332;2024-02-16T11:26:42;2.87;;;2.30;;
43319;SDS011;28914;48.722;9.332;2024-02-16T11:32:02;4.73;;;2.40;;
43319;SDS011;28914;48.722;9.332;2024-02-16T11:37:22;4.10;;;2.40;;
43319;SDS011;28914;48.722;9.332;2024-02-16T11:42:41;4.10;;;1.90;;
43319;SDS011;28914;48.722;9.332;2024-02-16T11:48:03;6.60;;;2.27;;
43319;SDS011;28914;48.722;9.332;2024-02-16T11:53:23;2.40;;;1.70;;
43319;SDS011;28914;48.722;9.332;2024-02-16T11:58:43;2.60;;;1.77;;
43319;SDS011;28914;48.722;9.332;2024-02-16T12:04:02;3.00;;;1.80;;
43319;SDS011;28914;48.722;9.332;2024-02-16T12:09:21;1.93;;;1.63;;
43319;SDS011;28914;48.722;9.332;2024-02-16T12:14:41;3.10;;;1.50;;
43319;SDS011;28914;48.722;9.332;2024-02-16T12:20:00;2.37;;;1.40;;
43319;SDS011;28914;48.722;9.332;2024-02-16T12:25:20;2.10;;;1.50;;
43319;SDS011;28914;48.722;9.332;2024-02-16T12:30:39;1.90;;;1.40;;
43319;SDS011;28914;48.722;9.332;2024-02-16T12:35:59;2.63;;;1.70;;
43319;SDS011;28914;48.722;9.332;2024-02-16T12:41:18;2.80;;;1.60;;
43319;SDS011;28914;48.722;9.332;2024-02-16T12:46:37;2.90;;;1.57;;
43319;SDS011;28914;48.722;9.332;2024-02-16T12:51:58;2.47;;;1.73;;
43319;SDS011;28914;48.722;9.332;2024-02-16T12:57:17;4.80;;;1.70;;
43319;SDS011;28914;48.722;9.332;2024-02-16T13:02:37;1.70;;;1.60;;
43319;SDS011;28914;48.722;9.332;2024-02-16T13:07:56;3.60;;;1.73;;
43319;SDS011;28914;48.722;9.332;2024-02-16T13:13:15;3.00;;;1.90;;
43319;SDS011;28914;48.722;9.332;2024-02-16T13:18:34;3.63;;;1.77;;
43319;SDS011;28914;48.722;9.332;2024-02-16T13:23:53;2.80;;;1.53;;
43319;SDS011;28914;48.722;9.332;2024-02-16T13:29:12;2.60;;;1.63;;
43319;SDS011;28914;48.722;9.332;2024-02-16T13:34:32;6.40;;;2.00;;
43319;SDS011;28914;48.722;9.332;2024-02-16T13:39:51;2.17;;;1.50;;
43319;SDS011;28914;48.722;9.332;2024-02-16T13:45:11;1.93;;;1.60;;
43319;SDS011;28914;48.722;9.332;2024-02-16T13:50:30;4.87;;;2.80;;
43319;SDS011;28914;48.722;9.332;2024-02-16T13:55:49;2.23;;;1.80;;
43319;SDS011;28914;48.722;9.332;2024-02-16T14:01:08;2.93;;;2.00;;
43319;SDS011;28914;48.722;9.332;2024-02-16T14:06:27;2.77;;;1.80;;
43319;SDS011;28914;48.722;9.332;2024-02-16T14:11:47;2.60;;;1.60;;
43319;SDS011;28914;48.722;9.332;2024-02-16T14:17:06;2.33;;;1.63;;
43319;SDS011;28914;48.722;9.332;2024-02-16T14:22:25;3.13;;;2.80;;
43319;SDS011;28914;48.722;9.332;2024-02-16T14:27:44;3.53;;;2.03;;
43319;SDS011;28914;48.722;9.332;2024-02-16T14:33:03;2.90;;;2.33;;
43319;SDS011;28914;48.722;9.332;2024-02-16T14:38:23;3.67;;;2.83;;
43319;SDS011;28914;48.722;9.332;2024-02-16T14:43:42;3.90;;;2.17;;
43319;SDS011;28914;48.722;9.332;2024-02-16T14:49:01;2.97;;;2.07;;
43319;SDS011;28914;48.722;9.332;2024-02-16T14:54:21;2.30;;;1.70;;
43319;SDS011;28914;48.722;9.332;2024-02-16T14:59:40;5.87;;;2.20;;
43319;SDS011;28914;48.722;9.332;2024-02-16T15:04:59;3.10;;;1.93;;
43319;SDS011;28914;48.722;9.332;2024-02-16T15:10:18;2.10;;;1.80;;
43319;SDS011;28914;48.722;9.332;2024-02-16T15:15:37;3.80;;;2.43;;
43319;SDS011;28914;48.722;9.332;2024-02-16T15:20:57;3.40;;;2.67;;
43319;SDS011;28914;48.722;9.332;2024-02-16T15:26:16;1.90;;;1.63;;
43319;SDS011;28914;48.722;9.332;2024-02-16T15:31:35;3.53;;;1.97;;
43319;SDS011;28914;48.722;9.332;2024-02-16T15:36:54;4.07;;;2.40;;
43319;SDS011;28914;48.722;9.332;2024-02-16T15:42:18;4.43;;;2.50;;
43319;SDS011;28914;48.722;9.332;2024-02-16T15:47:37;2.80;;;2.47;;
43319;SDS011;28914;48.722;9.332;2024-02-16T15:52:57;3.17;;;2.43;;
43319;SDS011;28914;48.722;9.332;2024-02-16T15:58:16;2.73;;;2.30;;
43319;SDS011;28914;48.722;9.332;2024-02-16T16:03:35;6.17;;;2.63;;
43319;SDS011;28914;48.722;9.332;2024-02-16T16:08:54;2.63;;;2.30;;
43319;SDS011;28914;48.722;9.332;2024-02-16T16:14:13;2.40;;;1.97;;
43319;SDS011;28914;48.722;9.332;2024-02-16T16:19:33;4.50;;;2.80;;
43319;SDS011;28914;48.722;9.332;2024-02-16T16:24:53;7.27;;;2.70;;
43319;SDS011;28914;48.722;9.332;2024-02-16T16:30:12;4.23;;;3.00;;
43319;SDS011;28914;48.722;9.332;2024-02-16T16:35:31;7.00;;;3.73;;
43319;SDS011;28914;48.722;9.332;2024-02-16T16:40:50;6.40;;;3.67;;
43319;SDS011;28914;48.722;9.332;2024-02-16T16:46:09;5.73;;;4.67;;
43319;SDS011;28914;48.722;9.332;2024-02-16T16:51:29;5.43;;;3.53;;
43319;SDS011;28914;48.722;9.332;2024-02-16T16:56:48;3.87;;;2.67;;
43319;SDS011;28914;48.722;9.332;2024-02-16T17:02:08;3.23;;;2.13;;
43319;SDS011;28914;48.722;9.332;2024-02-16T17:07:27;3.60;;;2.23;;
43319;SDS011;28914;48.722;9.332;2024-02-16T17:12:47;4.90;;;2.20;;
43319;SDS011;28914;48.722;9.332;2024-02-16T17:18:06;5.97;;;2.40;;
43319;SDS011;28914;48.722;9.332;2024-02-16T17:23:25;3.50;;;1.73;;
43319;SDS011;28914;48.722;9.332;2024-02-16T17:28:44;2.17;;;1.80;;
43319;SDS011;28914;48.722;9.332;2024-02-16T17:34:04;4.40;;;1.93;;
43319;SDS011;28914;48.722;9.332;2024-02-16T17:39:24;3.10;;;2.50;;
43319;SDS011;28914;48.722;9.332;2024-02-16T17:44:44;5.20;;;3.30;;
43319;SDS011;28914;48.722;9.332;2024-02-16T17:50:04;4.80;;;4.30;;
43319;SDS011;28914;48.722;9.332;2024-02-16T17:55:24;3.90;;;3.50;;
43319;SDS011;28914;48.722;9.332;2024-02-16T18:00:43;3.10;;;2.43;;
43319;SDS011;28914;48.722;9.332;2024-02-16T18:06:02;5.20;;;2.73;;
43319;SDS011;28914;48.722;9.332;2024-02-16T18:11:21;6.00;;;2.80;;
43319;SDS011;28914;48.722;9.332;2024-02-16T18:16:41;3.40;;;2.67;;
43319;SDS011;28914;48.722;9.332;2024-02-16T18:22:00;3.07;;;2.60;;
43319;SDS011;28914;48.722;9.332;2024-02-16T18:27:19;2.50;;;2.27;;
43319;SDS011;28914;48.722;9.332;2024-02-16T18:32:38;3.13;;;2.40;;
43319;SDS011;28914;48.722;9.332;2024-02-16T18:37:57;3.50;;;2.03;;
43319;SDS011;28914;48.722;9.332;2024-02-16T18:43:16;2.90;;;2.17;;
43319;SDS011;28914;48.722;9.332;2024-02-16T18:48:35;3.77;;;2.60;;
43319;SDS011;28914;48.722;9.332;2024-02-16T18:53:56;3.20;;;2.00;;
43319;SDS011;28914;48.722;9.332;2024-02-16T18:59:15;4.13;;;2.30;;
43319;SDS011;28914;48.722;9.332;2024-02-16T19:04:35;5.17;;;2.27;;
43319;SDS011;28914;48.722;9.332;2024-02-16T19:09:55;3.77;;;2.23;;
43319;SDS011;28914;48.722;9.332;2024-02-16T19:15:15;3.90;;;2.50;;
43319;SDS011;28914;48.722;9.332;2024-02-16T19:20:35;4.20;;;2.30;;
43319;SDS011;28914;48.722;9.332;2024-02-16T19:25:55;5.37;;;2.30;;
43319;SDS011;28914;48.722;9.332;2024-02-16T19:31:15;3.90;;;3.23;;
43319;SDS011;28914;48.722;9.332;2024-02-16T19:36:34;4.20;;;2.40;;
43319;SDS011;28914;48.722;9.332;2024-02-16T19:41:53;5.87;;;2.47;;
43319;SDS011;28914;48.722;9.332;2024-02-16T19:47:13;3.57;;;2.60;;
43319;SDS011;28914;48.722;9.332;2024-02-16T19:52:32;4.10;;;3.20;;
43319;SDS011;28914;48.722;9.332;2024-02-16T19:57:51;3.80;;;2.77;;
43319;SDS011;28914;48.722;9.332;2024-02-16T20:03:10;4.43;;;3.90;;
43319;SDS011;28914;48.722;9.332;2024-02-16T20:08:30;4.57;;;3.13;;
43319;SDS011;28914;48.722;9.332;2024-02-16T20:13:49;4.77;;;3.10;;
43319;SDS011;28914;48.722;9.332;2024-02-16T20:19:09;4.27;;;3.60;;
43319;SDS011;28914;48.722;9.332;2024-02-16T20:24:28;3.63;;;2.93;;
43319;SDS011;28914;48.722;9.332;2024-02-16T20:29:48;4.30;;;3.70;;
43319;SDS011;28914;48.722;9.332;2024-02-16T20:35:07;4.27;;;3.60;;
43319;SDS011;28914;48.722;9.332;2024-02-16T20:40:26;8.77;;;5.23;;
43319;SDS011;28914;48.722;9.332;2024-02-16T20:45:45;5.10;;;4.27;;
43319;SDS011;28914;48.722;9.332;2024-02-16T20:51:05;7.30;;;4.73;;
43319;SDS011;28914;48.722;9.332;2024-02-16T20:56:25;6.90;;;5.67;;
43319;SDS011;28914;48.722;9.332;2024-02-16T21:01:45;7.77;;;6.70;;
43319;SDS011;28914;48.722;9.332;2024-02-16T21:07:04;6.43;;;5.73;;
43319;SDS011;28914;48.722;9.332;2024-02-16T21:12:23;5.20;;;4.70;;
43319;SDS011;28914;48.722;9.332;2024-02-16T21:17:42;7.20;;;4.30;;
43319;SDS011;28914;48.722;9.332;2024-02-16T21:23:02;4.90;;;3.97;;
43319;SDS011;28914;48.722;9.332;2024-02-16T21:28:21;5.53;;;4.50;;
43319;SDS011;28914;48.722;9.332;2024-02-16T21:33:40;4.57;;;3.87;;
43319;SDS011;28914;48.722;9.332;2024-02-16T21:38:59;6.80;;;4.80;;
43319;SDS011;28914;48.722;9.332;2024-02-16T21:44:19;4.13;;;3.80;;
43319;SDS011;28914;48.722;9.332;2024-02-16T21:49:39;4.50;;;3.83;;
43319;SDS011;28914;48.722;9.332;2024-02-16T21:54:59;5.60;;;4.20;;
43319;SDS011;28914;48.722;9.332;2024-02-16T22:00:18;4.27;;;3.87;;
43319;SDS011;28914;48.722;9.332;2024-02-16T22:05:37;7.13;;;4.47;;
43319;SDS011;28914;48.722;9.332;2024-02-16T22:10:57;4.53;;;3.97;;
43319;SDS011;28914;48.722;9.332;2024-02-16T22:16:16;4.80;;;3.80;;
43319;SDS011;28914;48.722;9.332;2024-02-16T22:21:36;4.87;;;4.20;;
43319;SDS011;28914;48.722;9.332;2024-02-16T22:26:56;3.93;;;3.63;;
43319;SDS011;28914;48.722;9.332;2024-02-16T22:32:15;3.77;;;3.47;;
43319;SDS011;28914;48.722;9.332;2024-02-16T22:37:35;5.43;;;4.17;;
43319;SDS011;28914;48.722;9.332;2024-02-16T22:42:54;3.80;;;3.47;;
43319;SDS011;28914;48.722;9.332;2024-02-16T22:48:13;4.67;;;4.27;;
43319;SDS011;28914;48.722;9.332;2024-02-16T22:53:33;5.07;;;4.40;;
43319;SDS011;28914;48.722;9.332;2024-02-16T22:58:52;5.57;;;5.07;;
43319;SDS011;28914;48.722;9.332;2024-02-16T23:04:11;5.20;;;4.73;;
43319;SDS011;28914;48.722;9.332;2024-02-16T23:09:30;7.33;;;5.53;;
43319;SDS011;28914;48.722;9.332;2024-02-16T23:14:49;6.30;;;5.70;;
43319;SDS011;28914;48.722;9.332;2024-02-16T23:20:11;4.57;;;4.17;;
43319;SDS011;28914;48.722;9.332;2024-02-16T23:25:33;5.43;;;4.93;;
43319;SDS011;28914;48.722;9.332;2024-02-16T23:30:52;8.53;;;6.07;;
43319;SDS011;28914;48.722;9.332;2024-02-16T23:36:12;7.40;;;5.50;;
43319;SDS011;28914;48.722;9.332;2024-02-16T23:41:33;7.27;;;6.40;;
43319;SDS011;28914;48.722;9.332;2024-02-16T23:46:52;5.17;;;4.73;;
43319;SDS011;28914;48.722;9.332;2024-02-16T23:52:11;5.83;;;5.33;;
43319;SDS011;28914;48.722;9.332;2024-02-16T23:57:31;5.13;;;4.70;;
